CCA9889 ZPZT-ZUXC
Flight info
| Callsign | CCA9889 |
|---|---|
| Flight time | N/A |
| Altitude | 17000 |
| Route | ZPZT DCT ZUXC |
| Aircraft | A320/M-SDE1GH/LB1 |
Departure
| Time | N/A |
|---|---|
| Airport | ZPZT |
Arrival
| Time | 2026-05-06 13:20 |
|---|---|
| Airport | Xichang Qingshan Airport (ZUXC) |
| Time | Latitude | Longitude | Altitude | Speed | Heading |
|---|---|---|---|---|---|
| 2026-05-06 12:43 | 27.32722 | 103.75308 | 6348 ft | 0 kts | 311° |
| 2026-05-06 12:45 | 27.32701 | 103.75313 | 6346 ft | 0 kts | 37° |
| 2026-05-06 12:46 | 27.32701 | 103.75314 | 6346 ft | 0 kts | 38° |
| 2026-05-06 12:46 | 27.32707 | 103.75324 | 6346 ft | 3 kts | 62° |
| 2026-05-06 12:47 | 27.32707 | 103.75336 | 6348 ft | 3 kts | 97° |
| 2026-05-06 12:50 | 27.32701 | 103.75349 | 6348 ft | 4 kts | 126° |
| 2026-05-06 12:50 | 27.32674 | 103.75383 | 6346 ft | 8 kts | 131° |
| 2026-05-06 12:50 | 27.32633 | 103.75435 | 6350 ft | 10 kts | 131° |
| 2026-05-06 12:51 | 27.32628 | 103.75501 | 6348 ft | 10 kts | 51° |
| 2026-05-06 12:51 | 27.32685 | 103.75559 | 6351 ft | 14 kts | 42° |
| 2026-05-06 12:51 | 27.32783 | 103.75656 | 6350 ft | 24 kts | 41° |
| 2026-05-06 12:51 | 27.32927 | 103.75797 | 6353 ft | 29 kts | 41° |
| 2026-05-06 12:52 | 27.33076 | 103.75945 | 6358 ft | 28 kts | 41° |
| 2026-05-06 12:52 | 27.33224 | 103.76089 | 6360 ft | 27 kts | 41° |
| 2026-05-06 12:52 | 27.33360 | 103.76223 | 6365 ft | 24 kts | 41° |
| 2026-05-06 12:52 | 27.33484 | 103.76345 | 6367 ft | 23 kts | 41° |
| 2026-05-06 12:53 | 27.33581 | 103.76441 | 6371 ft | 14 kts | 41° |
| 2026-05-06 12:53 | 27.33640 | 103.76506 | 6366 ft | 9 kts | 354° |
| 2026-05-06 12:53 | 27.33630 | 103.76475 | 6363 ft | 7 kts | 190° |
| 2026-05-06 12:53 | 27.33603 | 103.76460 | 6371 ft | 0 kts | 222° |
| 2026-05-06 12:54 | 27.33595 | 103.76452 | 6369 ft | 16 kts | 221° |
| 2026-05-06 12:54 | 27.33300 | 103.76162 | 6362 ft | 96 kts | 221° |
| 2026-05-06 12:54 | 27.32608 | 103.75483 | 6350 ft | 167 kts | 221° |
| 2026-05-06 12:54 | 27.31591 | 103.74487 | 6729 ft | 207 kts | 221° |
| 2026-05-06 12:55 | 27.30475 | 103.73401 | 7706 ft | 215 kts | 221° |
| 2026-05-06 12:55 | 27.29365 | 103.72321 | 8359 ft | 207 kts | 221° |
| 2026-05-06 12:55 | 27.28271 | 103.71255 | 8919 ft | 210 kts | 221° |
| 2026-05-06 12:55 | 27.27144 | 103.70155 | 9486 ft | 226 kts | 221° |
| 2026-05-06 12:56 | 27.25910 | 103.68860 | 10085 ft | 257 kts | 230° |
| 2026-05-06 12:56 | 27.24927 | 103.67087 | 10929 ft | 278 kts | 246° |
| 2026-05-06 12:56 | 27.24209 | 103.65013 | 11950 ft | 291 kts | 249° |
| 2026-05-06 12:56 | 27.23467 | 103.62848 | 13008 ft | 302 kts | 249° |
| 2026-05-06 12:57 | 27.22705 | 103.60650 | 14127 ft | 308 kts | 249° |
| 2026-05-06 12:57 | 27.21916 | 103.58396 | 15270 ft | 314 kts | 248° |
| 2026-05-06 12:57 | 27.21097 | 103.56064 | 16087 ft | 330 kts | 248° |
| 2026-05-06 12:57 | 27.20228 | 103.53579 | 16575 ft | 355 kts | 249° |
| 2026-05-06 12:58 | 27.19297 | 103.50910 | 17024 ft | 378 kts | 249° |
| 2026-05-06 12:58 | 27.18307 | 103.48073 | 17390 ft | 403 kts | 249° |
| 2026-05-06 12:58 | 27.17414 | 103.44994 | 17431 ft | 421 kts | 257° |
| 2026-05-06 12:58 | 27.16921 | 103.41750 | 17407 ft | 421 kts | 261° |
| 2026-05-06 12:59 | 27.16476 | 103.38505 | 17388 ft | 420 kts | 261° |
| 2026-05-06 12:59 | 27.16006 | 103.35255 | 17366 ft | 423 kts | 261° |
| 2026-05-06 12:59 | 27.15520 | 103.31992 | 17356 ft | 424 kts | 260° |
| 2026-05-06 12:59 | 27.15033 | 103.28756 | 17351 ft | 416 kts | 260° |
| 2026-05-06 13:00 | 27.14549 | 103.25539 | 17335 ft | 420 kts | 260° |
| 2026-05-06 13:00 | 27.14066 | 103.22331 | 17327 ft | 415 kts | 260° |
| 2026-05-06 13:00 | 27.13581 | 103.19113 | 17318 ft | 422 kts | 260° |
| 2026-05-06 13:00 | 27.13093 | 103.15868 | 17311 ft | 422 kts | 260° |
| 2026-05-06 13:01 | 27.12601 | 103.12596 | 17298 ft | 425 kts | 260° |
| 2026-05-06 13:01 | 27.12109 | 103.09328 | 17281 ft | 424 kts | 260° |
| 2026-05-06 13:01 | 27.11620 | 103.06075 | 17254 ft | 422 kts | 260° |
| 2026-05-06 13:01 | 27.11132 | 103.02830 | 17232 ft | 420 kts | 260° |
| 2026-05-06 13:02 | 27.10643 | 102.99586 | 17204 ft | 424 kts | 260° |
| 2026-05-06 13:02 | 27.10152 | 102.96322 | 17194 ft | 422 kts | 260° |
| 2026-05-06 13:02 | 27.09668 | 102.93106 | 17179 ft | 417 kts | 260° |
| 2026-05-06 13:02 | 27.09187 | 102.89900 | 17177 ft | 413 kts | 260° |
| 2026-05-06 13:03 | 27.08712 | 102.86734 | 17160 ft | 414 kts | 260° |
| 2026-05-06 13:03 | 27.08228 | 102.83520 | 17164 ft | 419 kts | 260° |
| 2026-05-06 13:03 | 27.07744 | 102.80310 | 17159 ft | 416 kts | 260° |
| 2026-05-06 13:03 | 27.07259 | 102.77092 | 17149 ft | 420 kts | 260° |
| 2026-05-06 13:04 | 27.06778 | 102.73892 | 17035 ft | 413 kts | 260° |
| 2026-05-06 13:04 | 27.06302 | 102.70719 | 16901 ft | 413 kts | 260° |
| 2026-05-06 13:04 | 27.05824 | 102.67545 | 16773 ft | 414 kts | 260° |
| 2026-05-06 13:04 | 27.05346 | 102.64368 | 16655 ft | 412 kts | 260° |
| 2026-05-06 13:05 | 27.04867 | 102.61185 | 16532 ft | 415 kts | 260° |
| 2026-05-06 13:05 | 27.04386 | 102.57984 | 16406 ft | 417 kts | 260° |
| 2026-05-06 13:05 | 27.03903 | 102.54773 | 16274 ft | 419 kts | 260° |
| 2026-05-06 13:05 | 27.03423 | 102.51593 | 16067 ft | 417 kts | 260° |
| 2026-05-06 13:06 | 27.03061 | 102.48376 | 15834 ft | 415 kts | 265° |
| 2026-05-06 13:06 | 27.02965 | 102.45173 | 15612 ft | 408 kts | 270° |
| 2026-05-06 13:06 | 27.03178 | 102.42006 | 15377 ft | 408 kts | 277° |
| 2026-05-06 13:06 | 27.03510 | 102.38846 | 15155 ft | 409 kts | 276° |
| 2026-05-06 13:07 | 27.03833 | 102.35702 | 14917 ft | 403 kts | 276° |
| 2026-05-06 13:07 | 27.04148 | 102.32554 | 14681 ft | 409 kts | 276° |
| 2026-05-06 13:07 | 27.04461 | 102.29411 | 14456 ft | 402 kts | 276° |
| 2026-05-06 13:07 | 27.04917 | 102.26334 | 14204 ft | 401 kts | 287° |
| 2026-05-06 13:08 | 27.06189 | 102.23598 | 13967 ft | 395 kts | 308° |
| 2026-05-06 13:08 | 27.08253 | 102.21579 | 13748 ft | 395 kts | 329° |
| 2026-05-06 13:08 | 27.10817 | 102.20554 | 13567 ft | 392 kts | 348° |
| 2026-05-06 13:08 | 27.13542 | 102.20282 | 13417 ft | 395 kts | 358° |
| 2026-05-06 13:09 | 27.16290 | 102.20181 | 13252 ft | 393 kts | 358° |
| 2026-05-06 13:09 | 27.19022 | 102.20079 | 13053 ft | 393 kts | 358° |
| 2026-05-06 13:09 | 27.21750 | 102.19973 | 12806 ft | 392 kts | 358° |
| 2026-05-06 13:09 | 27.24479 | 102.19868 | 12564 ft | 394 kts | 358° |
| 2026-05-06 13:10 | 27.25068 | 102.19846 | 12514 ft | 394 kts | 358° |
| 2026-05-06 13:10 | 27.27529 | 102.19754 | 12311 ft | 389 kts | 358° |
| 2026-05-06 13:11 | 27.30182 | 102.19655 | 12086 ft | 386 kts | 358° |
| 2026-05-06 13:11 | 27.32863 | 102.19555 | 11867 ft | 385 kts | 358° |
| 2026-05-06 13:11 | 27.35535 | 102.19456 | 11661 ft | 384 kts | 358° |
| 2026-05-06 13:11 | 27.38197 | 102.19366 | 11458 ft | 382 kts | 358° |
| 2026-05-06 13:12 | 27.40850 | 102.19292 | 11255 ft | 381 kts | 359° |
| 2026-05-06 13:12 | 27.43490 | 102.19228 | 11037 ft | 382 kts | 359° |
| 2026-05-06 13:12 | 27.45246 | 102.19190 | 10900 ft | 380 kts | 359° |
| 2026-05-06 13:12 | 27.47880 | 102.19137 | 10673 ft | 378 kts | 359° |
| 2026-05-06 13:13 | 27.50508 | 102.19098 | 10474 ft | 377 kts | 360° |
| 2026-05-06 13:13 | 27.53124 | 102.19134 | 10294 ft | 375 kts | 1° |
| 2026-05-06 13:13 | 27.55739 | 102.19202 | 10139 ft | 375 kts | 1° |
| 2026-05-06 13:13 | 27.58347 | 102.19277 | 9988 ft | 375 kts | 1° |
| 2026-05-06 13:14 | 27.60948 | 102.19356 | 9827 ft | 374 kts | 1° |
| 2026-05-06 13:14 | 27.63501 | 102.19436 | 9664 ft | 353 kts | 1° |
| 2026-05-06 13:14 | 27.65862 | 102.19511 | 9445 ft | 327 kts | 1° |
| 2026-05-06 13:14 | 27.68062 | 102.19582 | 9195 ft | 307 kts | 1° |
| 2026-05-06 13:15 | 27.70139 | 102.19640 | 8925 ft | 292 kts | 0° |
| 2026-05-06 13:15 | 27.72143 | 102.19617 | 8645 ft | 285 kts | 358° |
| 2026-05-06 13:15 | 27.74101 | 102.19529 | 8388 ft | 278 kts | 358° |
| 2026-05-06 13:15 | 27.75999 | 102.19434 | 8176 ft | 268 kts | 357° |
| 2026-05-06 13:16 | 27.77800 | 102.19342 | 8028 ft | 248 kts | 357° |
| 2026-05-06 13:16 | 27.79456 | 102.19257 | 7886 ft | 229 kts | 357° |
| 2026-05-06 13:16 | 27.80979 | 102.19172 | 7712 ft | 215 kts | 357° |
| 2026-05-06 13:16 | 27.82450 | 102.19089 | 7500 ft | 209 kts | 357° |
| 2026-05-06 13:17 | 27.83882 | 102.19011 | 7285 ft | 204 kts | 357° |
| 2026-05-06 13:17 | 27.85266 | 102.18949 | 7127 ft | 192 kts | 358° |
| 2026-05-06 13:17 | 27.86560 | 102.18900 | 6963 ft | 180 kts | 358° |
| 2026-05-06 13:17 | 27.87800 | 102.18862 | 6786 ft | 177 kts | 358° |
| 2026-05-06 13:18 | 27.89036 | 102.18825 | 6622 ft | 177 kts | 358° |
| 2026-05-06 13:18 | 27.90182 | 102.18782 | 6452 ft | 154 kts | 358° |
| 2026-05-06 13:18 | 27.91260 | 102.18732 | 6281 ft | 156 kts | 358° |
| 2026-05-06 13:18 | 27.92357 | 102.18679 | 6099 ft | 157 kts | 358° |
| 2026-05-06 13:19 | 27.93441 | 102.18635 | 5940 ft | 154 kts | 358° |
| 2026-05-06 13:19 | 27.94506 | 102.18598 | 5741 ft | 152 kts | 358° |
| 2026-05-06 13:19 | 27.95550 | 102.18559 | 5505 ft | 150 kts | 358° |
| 2026-05-06 13:19 | 27.96616 | 102.18518 | 5291 ft | 154 kts | 358° |
| 2026-05-06 13:20 | 27.97658 | 102.18474 | 5101 ft | 145 kts | 358° |
| 2026-05-06 13:20 | 27.98508 | 102.18442 | 5083 ft | 89 kts | 358° |
| 2026-05-06 13:20 | 27.98910 | 102.18430 | 5083 ft | 38 kts | 358° |
| 2026-05-06 13:20 | 27.99111 | 102.18422 | 5084 ft | 18 kts | 358° |
| 2026-05-06 13:21 | 27.99166 | 102.18487 | 5084 ft | 10 kts | 87° |
| 2026-05-06 13:21 | 27.99149 | 102.18553 | 5083 ft | 9 kts | 145° |
| 2026-05-06 13:21 | 27.99082 | 102.18560 | 5083 ft | 10 kts | 178° |
| 2026-05-06 13:21 | 27.98994 | 102.18564 | 5082 ft | 16 kts | 178° |
| 2026-05-06 13:22 | 27.98859 | 102.18569 | 5082 ft | 23 kts | 178° |
| 2026-05-06 13:22 | 27.98685 | 102.18575 | 5082 ft | 28 kts | 178° |
| 2026-05-06 13:22 | 27.98499 | 102.18582 | 5082 ft | 24 kts | 178° |
| 2026-05-06 13:22 | 27.98335 | 102.18588 | 5082 ft | 23 kts | 178° |
| 2026-05-06 13:23 | 27.98187 | 102.18594 | 5082 ft | 19 kts | 178° |
| 2026-05-06 13:23 | 27.98074 | 102.18598 | 5083 ft | 12 kts | 178° |
| 2026-05-06 13:23 | 27.98033 | 102.18642 | 5082 ft | 9 kts | 89° |
| 2026-05-06 13:23 | 27.98035 | 102.18721 | 5082 ft | 11 kts | 88° |
| 2026-05-06 13:24 | 27.98036 | 102.18806 | 5082 ft | 10 kts | 98° |
| 2026-05-06 13:24 | 27.98031 | 102.18878 | 5081 ft | 6 kts | 88° |
| 2026-05-06 13:24 | 27.98031 | 102.18884 | 5081 ft | 0 kts | 90° |